Time;durP1;ratioP1;P1;durP2;ratioP2;P2;SDS_P1;SDS_P2;PMS_P1;PMS_P2;Temp;Humidity;BMP_temperature;BMP_pressure;BME280_temperature;BME280_humidity;BME280_pressure;Samples;Min_cycle;Max_cycle;Signal;HPM_P1;HPM_P2
2023/05/30 00:01:39;;;;;;;0.35;0.35;;;10.70;1.00;;;;;;5106510;28;20039;-76
2023/05/30 00:04:05;;;;;;;0.70;0.70;;;10.70;1.00;;;;;;5105652;28;20088;-77
2023/05/30 00:06:31;;;;;;;0.00;0.00;;;10.70;1.00;;;;;;5106228;28;20498;-76
2023/05/30 00:08:57;;;;;;;0.00;0.00;;;10.70;99.90;;;;;;5105899;28;20054;-76
2023/05/30 00:11:24;;;;;;;5.97;0.10;;;10.70;99.90;;;;;;5105360;28;20055;-76
2023/05/30 00:13:50;;;;;;;0.00;0.00;;;10.70;99.90;;;;;;5105780;28;20114;-76
2023/05/30 00:16:19;;;;;;;0.55;0.50;;;10.70;99.90;;;;;;5106076;28;20044;-77
2023/05/30 00:18:45;;;;;;;0.63;0.55;;;10.70;99.90;;;;;;5105468;28;20528;-77
2023/05/30 00:21:11;;;;;;;1.33;1.23;;;10.60;99.90;;;;;;5105806;28;20039;-77
2023/05/30 00:23:39;;;;;;;0.00;0.00;;;10.60;99.90;;;;;;5105772;28;20043;-77
2023/05/30 00:26:08;;;;;;;0.00;0.00;;;10.70;99.90;;;;;;5105524;28;20423;-77
2023/05/30 00:28:35;;;;;;;0.13;0.13;;;10.60;99.90;;;;;;5105724;28;20130;-77
2023/05/30 00:31:01;;;;;;;0.00;0.00;;;10.60;1.00;;;;;;5086730;28;20055;-76
2023/05/30 00:33:29;;;;;;;0.35;0.35;;;10.70;99.90;;;;;;5105225;28;20040;-76
2023/05/30 00:35:55;;;;;;;0.20;0.20;;;10.70;1.00;;;;;;5105153;28;20108;-76
2023/05/30 00:38:20;;;;;;;0.17;0.10;;;10.60;1.00;;;;;;5104905;28;20039;-77
2023/05/30 00:40:46;;;;;;;1.20;1.10;;;10.70;1.00;;;;;;5104872;28;20511;-76
2023/05/30 00:43:12;;;;;;;0.35;0.20;;;10.60;1.00;;;;;;5105478;28;20059;-76
2023/05/30 00:45:38;;;;;;;0.28;0.28;;;10.60;1.00;;;;;;5105572;28;20044;-76
2023/05/30 00:48:04;;;;;;;0.75;0.10;;;10.60;1.00;;;;;;5105195;28;20039;-77
2023/05/30 00:50:32;;;;;;;1.20;0.50;;;10.60;99.90;;;;;;5105714;28;20039;-76
2023/05/30 00:52:59;;;;;;;0.43;0.35;;;10.60;41.50;;;;;;5105573;28;20126;-76
2023/05/30 00:55:27;;;;;;;1.58;1.08;;;10.60;1.00;;;;;;5105302;28;20077;-77
2023/05/30 00:57:53;;;;;;;0.10;0.10;;;10.60;1.00;;;;;;5105110;28;20569;-77
2023/05/30 01:00:22;;;;;;;0.00;0.00;;;10.60;1.00;;;;;;5105543;28;20132;-77
2023/05/30 01:02:49;;;;;;;0.20;0.20;;;10.60;99.90;;;;;;5105119;28;20052;-76
2023/05/30 01:05:14;;;;;;;0.20;0.20;;;10.60;99.90;;;;;;5105121;28;20052;-76
2023/05/30 01:07:44;;;;;;;0.00;0.00;;;10.60;24.20;;;;;;5104959;28;20043;-76
2023/05/30 01:10:13;;;;;;;1.88;1.02;;;10.60;4.10;;;;;;5104266;28;20400;-77
2023/05/30 01:12:55;;;;;;;0.00;0.00;;;10.50;1.00;;;;;;5105197;28;20137;-77
2023/05/30 01:15:40;;;;;;;0.10;0.10;;;10.50;20.10;;;;;;5104886;28;20045;-76
2023/05/30 01:18:17;;;;;;;0.00;0.00;;;10.60;99.90;;;;;;5105477;28;20484;-76
2023/05/30 01:20:47;;;;;;;0.00;0.00;;;10.50;96.50;;;;;;5104722;28;20593;-76
2023/05/30 01:23:39;;;;;;;0.00;0.00;;;10.50;99.90;;;;;;5104441;28;20047;-76
2023/05/30 01:26:23;;;;;;;0.10;0.10;;;10.50;1.00;;;;;;5104050;28;20047;-76
2023/05/30 01:28:51;;;;;;;0.10;0.05;;;10.50;99.90;;;;;;5104076;28;20446;-76
2023/05/30 01:31:18;;;;;;;0.17;0.17;;;10.60;99.90;;;;;;5086275;28;20047;-77
2023/05/30 01:33:46;;;;;;;0.00;0.00;;;10.50;1.00;;;;;;5104142;28;20036;-76
2023/05/30 01:36:12;;;;;;;0.00;0.00;;;10.50;1.00;;;;;;5104449;28;20044;-76
2023/05/30 01:38:38;;;;;;;0.00;0.00;;;10.50;1.00;;;;;;5104218;28;20077;-76
2023/05/30 01:41:10;;;;;;;0.22;0.10;;;10.50;40.50;;;;;;5104331;28;20130;-76
2023/05/30 01:43:57;;;;;;;3.00;1.17;;;10.50;99.90;;;;;;5104692;28;20116;-77
2023/05/30 01:46:35;;;;;;;0.75;0.52;;;10.50;1.00;;;;;;5104657;28;20048;-76
2023/05/30 01:49:21;;;;;;;0.88;0.25;;;10.50;1.00;;;;;;5104213;28;20043;-76
2023/05/30 01:51:57;;;;;;;0.52;0.40;;;10.50;45.80;;;;;;5104400;28;20526;-76
2023/05/30 01:54:24;;;;;;;0.00;0.00;;;10.50;99.90;;;;;;5104416;28;20047;-76
2023/05/30 01:56:57;;;;;;;0.80;0.43;;;10.40;99.90;;;;;;5103967;28;20040;-76
2023/05/30 01:59:25;;;;;;;4.30;1.02;;;10.40;99.90;;;;;;5103730;28;20050;-76
2023/05/30 02:01:53;;;;;;;0.43;0.32;;;10.40;99.90;;;;;;5103786;28;20529;-75
2023/05/30 02:04:19;;;;;;;0.63;0.63;;;10.40;99.90;;;;;;5104016;28;20051;-76
2023/05/30 02:06:44;;;;;;;0.35;0.35;;;10.50;99.90;;;;;;5104199;28;20165;-76
2023/05/30 02:09:10;;;;;;;0.10;0.10;;;10.40;99.90;;;;;;5103829;28;20047;-76
2023/05/30 02:11:37;;;;;;;0.63;0.17;;;10.40;1.00;;;;;;5103574;28;20051;-76
2023/05/30 02:14:04;;;;;;;0.00;0.00;;;10.40;1.00;;;;;;5103561;28;20051;-76
2023/05/30 02:16:30;;;;;;;0.00;0.00;;;10.40;1.00;;;;;;5103963;28;20494;-76
2023/05/30 02:18:55;;;;;;;0.00;0.00;;;10.40;1.00;;;;;;5103894;28;20050;-76
2023/05/30 02:21:21;;;;;;;0.17;0.17;;;10.40;1.00;;;;;;5104107;28;20101;-76
2023/05/30 02:23:47;;;;;;;0.00;0.00;;;10.40;1.00;;;;;;5103993;28;20044;-75
2023/05/30 02:26:12;;;;;;;0.20;0.20;;;10.40;67.30;;;;;;5103972;28;20058;-76
2023/05/30 02:28:38;;;;;;;0.00;0.00;;;10.40;99.90;;;;;;5107901;28;20047;-76
2023/05/30 02:31:04;;;;;;;0.22;0.22;;;10.40;99.90;;;;;;5107732;28;20319;-76
2023/05/30 02:33:30;;;;;;;0.08;0.08;;;10.40;99.90;;;;;;5108199;28;20050;-76
2023/05/30 02:35:55;;;;;;;0.05;0.05;;;10.40;99.90;;;;;;5107777;28;20413;-76
2023/05/30 02:38:21;;;;;;;0.30;0.30;;;10.40;99.90;;;;;;5107659;28;20051;-76
2023/05/30 02:40:46;;;;;;;1.90;0.73;;;10.40;99.90;;;;;;5107601;28;20105;-77
2023/05/30 02:43:12;;;;;;;4.38;1.55;;;10.40;1.00;;;;;;5107276;28;20050;-76
2023/05/30 02:45:38;;;;;;;1.20;0.70;;;10.30;1.00;;;;;;5107459;28;20047;-76
2023/05/30 02:48:05;;;;;;;0.20;0.20;;;10.30;99.90;;;;;;5107484;28;20097;-76
2023/05/30 02:50:31;;;;;;;0.20;0.20;;;10.30;99.90;;;;;;5107842;28;20134;-76
2023/05/30 02:52:56;;;;;;;1.30;0.95;;;10.30;94.60;;;;;;5107510;28;20135;-76
2023/05/30 02:55:22;;;;;;;1.08;1.08;;;10.20;99.90;;;;;;5107194;28;20092;-76
2023/05/30 02:57:48;;;;;;;2.08;0.45;;;10.10;1.00;;;;;;5107679;28;20051;-76
2023/05/30 03:00:15;;;;;;;0.45;0.32;;;10.10;7.30;;;;;;5106917;28;20055;-76
2023/05/30 03:02:42;;;;;;;0.10;0.10;;;10.10;23.20;;;;;;5107750;28;20498;-76
2023/05/30 03:05:10;;;;;;;1.33;0.90;;;10.00;63.00;;;;;;5107113;28;20048;-76
2023/05/30 03:07:36;;;;;;;0.00;0.00;;;10.10;62.00;;;;;;5107550;28;20470;-76
2023/05/30 03:10:03;;;;;;;1.27;0.90;;;10.10;1.00;;;;;;5107024;28;20078;-76
2023/05/30 03:12:29;;;;;;;0.50;0.50;;;10.20;1.00;;;;;;5107181;28;20076;-76
2023/05/30 03:14:54;;;;;;;0.00;0.00;;;10.20;1.00;;;;;;5107383;28;20101;-76
2023/05/30 03:17:21;;;;;;;0.00;0.00;;;10.20;99.90;;;;;;5107276;28;20049;-76
2023/05/30 03:19:47;;;;;;;0.68;0.63;;;10.20;99.90;;;;;;5107882;28;20079;-76
2023/05/30 03:22:12;;;;;;;0.00;0.00;;;10.10;99.90;;;;;;5106661;28;20082;-76
2023/05/30 03:24:39;;;;;;;0.55;0.55;;;10.10;13.00;;;;;;5106827;28;20040;-78
2023/05/30 03:27:05;;;;;;;0.15;0.15;;;10.00;99.90;;;;;;5106778;28;20421;-75
2023/05/30 03:29:31;;;;;;;0.00;0.00;;;9.90;99.90;;;;;;5106407;28;20565;-75
2023/05/30 03:31:57;;;;;;;0.28;0.28;;;10.00;99.90;;;;;;5106479;28;20047;-76
2023/05/30 03:34:23;;;;;;;0.25;0.25;;;10.00;99.90;;;;;;5106601;28;20077;-76
2023/05/30 03:36:52;;;;;;;0.00;0.00;;;10.00;99.90;;;;;;5106787;28;20047;-76
2023/05/30 03:39:19;;;;;;;0.70;0.70;;;10.00;99.90;;;;;;5104890;28;20118;-76
2023/05/30 03:41:45;;;;;;;10.25;0.88;;;10.00;99.90;;;;;;5106181;28;20051;-76
2023/05/30 03:44:10;;;;;;;1.33;0.80;;;10.00;99.90;;;;;;5105761;28;20050;-76
2023/05/30 03:46:36;;;;;;;0.47;0.47;;;10.10;61.20;;;;;;5106347;28;20100;-76
2023/05/30 03:49:01;;;;;;;1.00;0.45;;;10.20;1.00;;;;;;5105873;28;20532;-76
2023/05/30 03:51:27;;;;;;;3.53;1.55;;;10.30;1.00;;;;;;5106398;28;20090;-76
2023/05/30 03:53:53;;;;;;;0.20;0.20;;;10.30;99.90;;;;;;5106061;28;20048;-76
2023/05/30 03:56:18;;;;;;;0.00;0.00;;;10.50;99.90;;;;;;5087875;28;20149;-76
2023/05/30 03:58:44;;;;;;;0.22;0.22;;;10.40;99.90;;;;;;5106010;28;20043;-76
2023/05/30 04:01:10;;;;;;;0.20;0.13;;;10.40;99.90;;;;;;5106052;28;20517;-76
2023/05/30 04:03:37;;;;;;;0.00;0.00;;;10.40;99.90;;;;;;5105978;28;20047;-76
2023/05/30 04:06:05;;;;;;;0.00;0.00;;;10.50;99.90;;;;;;5106340;28;20505;-76
2023/05/30 04:08:31;;;;;;;0.20;0.13;;;10.60;99.90;;;;;;5105914;28;20047;-76
2023/05/30 04:10:57;;;;;;;0.38;0.32;;;10.70;99.90;;;;;;5105725;28;20414;-75
2023/05/30 04:13:23;;;;;;;0.73;0.35;;;10.70;99.90;;;;;;5105993;28;20157;-78
2023/05/30 04:15:48;;;;;;;0.13;0.13;;;10.70;97.20;;;;;;5106173;28;20044;-76
2023/05/30 04:18:14;;;;;;;0.20;0.10;;;10.70;1.00;;;;;;5105906;28;20074;-76
2023/05/30 04:20:40;;;;;;;0.10;0.10;;;10.80;48.40;;;;;;5105681;28;20079;-77
2023/05/30 04:23:06;;;;;;;5.63;0.93;;;10.80;69.80;;;;;;5105608;28;20501;-76
2023/05/30 04:25:33;;;;;;;8.23;0.55;;;11.00;15.20;;;;;;5105465;28;20062;-75
2023/05/30 04:27:59;;;;;;;0.35;0.22;;;10.90;83.30;;;;;;5105128;28;20053;-75
2023/05/30 04:30:24;;;;;;;4.05;0.95;;;10.90;18.00;;;;;;5105557;28;20040;-76
2023/05/30 04:32:50;;;;;;;2.33;0.52;;;11.00;1.00;;;;;;5105340;28;20116;-75
2023/05/30 04:35:16;;;;;;;0.43;0.43;;;11.10;17.60;;;;;;5105369;28;20044;-76
2023/05/30 04:37:44;;;;;;;1.67;1.08;;;11.00;1.00;;;;;;5105520;28;20054;-76
2023/05/30 04:40:13;;;;;;;0.00;0.00;;;11.10;1.00;;;;;;5105133;28;20051;-76
2023/05/30 04:42:42;;;;;;;2.17;0.77;;;11.20;1.00;;;;;;5105293;28;20153;-76
2023/05/30 04:45:16;;;;;;;0.00;0.00;;;11.20;1.00;;;;;;5104880;28;20132;-76
2023/05/30 04:47:44;;;;;;;0.40;0.40;;;11.20;1.00;;;;;;5105319;28;20093;-75
2023/05/30 04:50:10;;;;;;;0.55;0.15;;;11.20;1.00;;;;;;5104189;28;20058;-76
2023/05/30 04:52:36;;;;;;;6.35;0.40;;;11.30;1.00;;;;;;5104857;28;20043;-76
2023/05/30 04:55:02;;;;;;;0.28;0.25;;;11.30;1.00;;;;;;5104921;28;20039;-76
2023/05/30 04:57:27;;;;;;;0.65;0.45;;;11.30;1.00;;;;;;5104981;28;20056;-76
2023/05/30 04:59:53;;;;;;;5.15;0.55;;;11.30;20.90;;;;;;5105213;28;20035;-75
2023/05/30 05:02:19;;;;;;;1.48;0.88;;;11.30;99.90;;;;;;5105365;28;20043;-76
2023/05/30 05:04:45;;;;;;;2.05;0.63;;;11.30;99.90;;;;;;5105317;28;20047;-76
2023/05/30 05:07:10;;;;;;;0.47;0.40;;;11.30;99.90;;;;;;5104809;28;20150;-75
2023/05/30 05:09:36;;;;;;;13.50;0.35;;;11.40;99.90;;;;;;5104246;28;20075;-76
2023/05/30 05:12:03;;;;;;;0.20;0.20;;;11.40;99.90;;;;;;5105543;28;20064;-75
2023/05/30 05:14:28;;;;;;;0.13;0.13;;;12.70;99.90;;;;;;5103907;28;20043;-76
2023/05/30 05:16:54;;;;;;;3.40;0.85;;;11.50;99.90;;;;;;5103083;28;20044;-76
2023/05/30 05:19:20;;;;;;;0.10;0.10;;;11.50;99.90;;;;;;5103327;28;20055;-76
2023/05/30 05:21:45;;;;;;;0.43;0.13;;;11.50;99.90;;;;;;5103152;28;20160;-76
2023/05/30 05:24:11;;;;;;;0.55;0.55;;;11.60;24.00;;;;;;5102807;28;20584;-76
2023/05/30 05:26:37;;;;;;;0.45;0.28;;;11.50;35.40;;;;;;5102963;28;20046;-76
2023/05/30 05:29:02;;;;;;;13.15;1.17;;;11.60;99.90;;;;;;5102966;28;20048;-76
2023/05/30 05:31:32;;;;;;;0.75;0.47;;;11.50;99.90;;;;;;5103186;28;20448;-76
2023/05/30 05:33:58;;;;;;;1.98;0.43;;;11.60;99.90;;;;;;5103439;28;20043;-76
2023/05/30 05:36:24;;;;;;;0.10;0.10;;;11.60;99.90;;;;;;5103398;28;20393;-76
2023/05/30 05:38:50;;;;;;;0.10;0.10;;;11.70;99.90;;;;;;5102943;28;20100;-76
2023/05/30 05:41:16;;;;;;;0.40;0.40;;;11.70;99.90;;;;;;5103077;28;20572;-75
2023/05/30 05:43:41;;;;;;;0.30;0.25;;;11.60;99.90;;;;;;5103094;28;20047;-76
2023/05/30 05:46:07;;;;;;;0.63;0.10;;;11.70;1.00;;;;;;5102971;28;20451;-76
2023/05/30 05:48:33;;;;;;;4.70;0.85;;;11.70;99.90;;;;;;5102878;28;20144;-76
2023/05/30 05:50:58;;;;;;;0.45;0.45;;;11.80;1.00;;;;;;5102615;28;20039;-76
2023/05/30 05:53:24;;;;;;;0.10;0.03;;;11.80;1.00;;;;;;5102493;28;20413;-76
2023/05/30 05:55:50;;;;;;;0.00;0.00;;;11.80;1.00;;;;;;5102663;28;20056;-76
2023/05/30 05:58:15;;;;;;;0.00;0.00;;;11.80;1.00;;;;;;5102914;28;20130;-76
2023/05/30 06:00:41;;;;;;;0.00;0.00;;;11.90;1.00;;;;;;5102489;28;20066;-76
2023/05/30 06:03:07;;;;;;;0.20;0.17;;;11.90;99.90;;;;;;5102186;28;20046;-76
2023/05/30 06:05:32;;;;;;;0.75;0.57;;;12.60;99.90;;;;;;5102147;28;20455;-76
2023/05/30 06:07:58;;;;;;;0.00;0.00;;;12.00;99.90;;;;;;5102054;28;20082;-76
2023/05/30 06:10:24;;;;;;;0.68;0.35;;;11.90;99.90;;;;;;5102221;28;20048;-76
2023/05/30 06:12:51;;;;;;;0.93;0.80;;;11.90;99.90;;;;;;5102292;28;20074;-76
2023/05/30 06:15:17;;;;;;;0.00;0.00;;;12.00;99.90;;;;;;5102390;28;20803;-76
2023/05/30 06:17:42;;;;;;;0.00;0.00;;;12.00;99.90;;;;;;5102485;28;20047;-76
2023/05/30 06:20:09;;;;;;;1.02;0.47;;;12.00;1.00;;;;;;5102404;28;20075;-76
2023/05/30 06:22:34;;;;;;;1.08;0.65;;;12.00;1.00;;;;;;5102512;28;20043;-75
2023/05/30 06:25:00;;;;;;;1.13;0.75;;;12.10;99.90;;;;;;5102276;28;20054;-76
2023/05/30 06:27:26;;;;;;;0.52;0.40;;;12.10;99.90;;;;;;5102291;28;20541;-76
2023/05/30 06:29:54;;;;;;;0.00;0.00;;;12.10;99.90;;;;;;5102174;28;20051;-76
2023/05/30 06:32:20;;;;;;;0.00;0.00;;;13.40;99.90;;;;;;5102302;28;20504;-76
2023/05/30 06:34:46;;;;;;;0.47;0.47;;;12.20;90.20;;;;;;5102217;28;20044;-76
2023/05/30 06:37:13;;;;;;;0.25;0.25;;;12.10;99.90;;;;;;5102530;28;20035;-76
2023/05/30 06:39:39;;;;;;;0.50;0.32;;;12.20;99.90;;;;;;5102394;28;20427;-76
2023/05/30 06:42:07;;;;;;;0.00;0.00;;;12.20;99.90;;;;;;5102142;28;20054;-76
2023/05/30 06:44:33;;;;;;;0.00;0.00;;;12.40;99.90;;;;;;5101993;28;20479;-76
2023/05/30 06:46:58;;;;;;;0.30;0.30;;;12.50;99.90;;;;;;5102115;28;20079;-76
2023/05/30 06:49:24;;;;;;;0.17;0.17;;;12.50;99.90;;;;;;5101674;28;20055;-76
2023/05/30 06:51:50;;;;;;;0.63;0.32;;;12.40;4.70;;;;;;5102047;28;20083;-76
2023/05/30 06:54:15;;;;;;;0.25;0.17;;;12.40;99.90;;;;;;5101913;28;20050;-76
2023/05/30 06:56:41;;;;;;;0.10;0.05;;;12.40;1.00;;;;;;5102343;28;20482;-76
2023/05/30 06:59:06;;;;;;;2.67;0.30;;;12.30;99.90;;;;;;5101761;28;20044;-76
2023/05/30 07:01:33;;;;;;;0.00;0.00;;;12.30;1.00;;;;;;5102078;28;20046;-76
2023/05/30 07:03:59;;;;;;;0.05;0.05;;;12.30;99.90;;;;;;5101899;28;20131;-76
2023/05/30 07:06:25;;;;;;;0.00;0.00;;;12.40;99.90;;;;;;5101876;28;20130;-76
2023/05/30 07:08:50;;;;;;;0.00;0.00;;;12.60;1.00;;;;;;5101962;28;20387;-76
2023/05/30 07:11:16;;;;;;;1.60;0.95;;;12.80;99.90;;;;;;5101442;28;20055;-76
2023/05/30 07:13:42;;;;;;;0.55;0.52;;;13.00;25.30;;;;;;5102064;28;20559;-76
2023/05/30 07:16:08;;;;;;;0.40;0.40;;;13.10;99.90;;;;;;5105549;28;20047;-76
2023/05/30 07:18:33;;;;;;;0.00;0.00;;;13.30;47.10;;;;;;5105880;28;20042;-76
2023/05/30 07:20:59;;;;;;;0.20;0.20;;;13.50;99.90;;;;;;5105792;28;20085;-76
2023/05/30 07:23:25;;;;;;;1.33;1.23;;;13.60;99.90;;;;;;5105617;28;20058;-76
2023/05/30 07:25:50;;;;;;;0.15;0.15;;;13.40;99.90;;;;;;5105549;28;20052;-76
2023/05/30 07:28:16;;;;;;;0.25;0.22;;;13.50;99.90;;;;;;5105609;28;20066;-76
2023/05/30 07:30:42;;;;;;;0.00;0.00;;;13.40;99.90;;;;;;5105499;28;20052;-76
2023/05/30 07:33:07;;;;;;;0.10;0.10;;;13.50;99.90;;;;;;5105125;28;20047;-76
2023/05/30 07:35:33;;;;;;;0.00;0.00;;;13.60;99.90;;;;;;5104955;28;20406;-76
2023/05/30 07:37:58;;;;;;;0.00;0.00;;;13.80;1.00;;;;;;5105097;28;20126;-76
2023/05/30 07:40:24;;;;;;;0.25;0.25;;;14.00;1.00;;;;;;5105390;28;20250;-76
2023/05/30 07:42:49;;;;;;;0.25;0.15;;;14.20;99.90;;;;;;5105484;28;20055;-76
2023/05/30 07:45:16;;;;;;;0.00;0.00;;;14.50;99.90;;;;;;5104980;28;20425;-76
2023/05/30 07:47:41;;;;;;;0.47;0.40;;;14.60;1.00;;;;;;5104964;28;20092;-76
2023/05/30 07:50:07;;;;;;;0.32;0.17;;;14.90;1.00;;;;;;5105469;28;20052;-76
2023/05/30 07:52:33;;;;;;;0.88;0.38;;;14.70;1.00;;;;;;5105076;28;20040;-76
2023/05/30 07:54:59;;;;;;;0.98;0.25;;;14.60;99.90;;;;;;5104790;28;20040;-76
2023/05/30 07:57:25;;;;;;;0.00;0.00;;;14.30;99.90;;;;;;5105133;28;20074;-76
2023/05/30 07:59:50;;;;;;;0.10;0.00;;;14.50;99.90;;;;;;5104555;28;20390;-76
2023/05/30 08:02:16;;;;;;;0.00;0.00;;;14.80;94.50;;;;;;5105069;28;20043;-75
2023/05/30 08:04:42;;;;;;;0.00;0.00;;;14.80;1.00;;;;;;5104633;28;20443;-76
2023/05/30 08:07:08;;;;;;;0.75;0.10;;;15.10;99.90;;;;;;5105043;28;20051;-76
2023/05/30 08:09:33;;;;;;;0.10;0.10;;;15.40;99.90;;;;;;5104628;28;20039;-76
2023/05/30 08:12:02;;;;;;;0.00;0.00;;;15.50;99.90;;;;;;5104394;28;20097;-76
2023/05/30 08:14:27;;;;;;;0.57;0.38;;;15.60;99.90;;;;;;5104328;28;20044;-76
2023/05/30 08:16:53;;;;;;;0.57;0.57;;;15.60;55.10;;;;;;5104330;28;20044;-75
2023/05/30 08:19:21;;;;;;;0.00;0.00;;;15.50;54.90;;;;;;5104110;28;20551;-75
2023/05/30 08:21:47;;;;;;;0.80;0.10;;;15.60;91.70;;;;;;5104266;28;20405;-76
2023/05/30 08:24:15;;;;;;;0.00;0.00;;;15.20;91.70;;;;;;5104140;28;20100;-76
2023/05/30 08:26:41;;;;;;;0.20;0.20;;;15.30;99.90;;;;;;5103990;28;20059;-75
2023/05/30 08:29:07;;;;;;;0.00;0.00;;;14.60;99.90;;;;;;5103998;28;20051;-76
2023/05/30 08:31:32;;;;;;;0.00;0.00;;;14.60;1.00;;;;;;5103771;28;20043;-76
2023/05/30 08:34:02;;;;;;;0.08;0.00;;;14.50;99.90;;;;;;5104326;28;20107;-76
2023/05/30 08:36:28;;;;;;;0.00;0.00;;;14.30;99.90;;;;;;5104416;28;20051;-75
2023/05/30 08:38:55;;;;;;;0.15;0.13;;;14.30;99.90;;;;;;5104243;28;20502;-76
2023/05/30 08:41:21;;;;;;;0.00;0.00;;;14.20;99.90;;;;;;5104238;28;20146;-76
2023/05/30 08:43:48;;;;;;;0.22;0.22;;;14.30;99.90;;;;;;5103800;28;20052;-76
2023/05/30 08:46:16;;;;;;;0.00;0.00;;;14.50;99.90;;;;;;5103774;28;20394;-76
2023/05/30 08:48:42;;;;;;;0.20;0.20;;;14.70;99.90;;;;;;5103992;28;20104;-76
2023/05/30 08:51:12;;;;;;;0.00;0.00;;;14.80;29.40;;;;;;5103951;28;20082;-76
2023/05/30 08:53:45;;;;;;;0.00;0.00;;;14.90;1.00;;;;;;5103684;28;20135;-76
2023/05/30 08:56:21;;;;;;;0.63;0.40;;;14.50;99.90;;;;;;5103493;28;20528;-76
2023/05/30 08:58:50;;;;;;;1.10;0.55;;;14.30;46.00;;;;;;5103514;28;20523;-76
2023/05/30 09:01:17;;;;;;;0.00;0.00;;;14.20;1.00;;;;;;5103681;28;20054;-76
2023/05/30 09:03:45;;;;;;;0.13;0.13;;;14.30;99.90;;;;;;5103596;28;20048;-75
2023/05/30 09:06:16;;;;;;;0.08;0.08;;;14.50;99.90;;;;;;5104069;28;20040;-76
2023/05/30 09:08:44;;;;;;;0.35;0.10;;;15.00;99.90;;;;;;5103179;28;20082;-76
2023/05/30 09:11:10;;;;;;;0.40;0.20;;;15.20;1.00;;;;;;5102903;28;20130;-76
2023/05/30 09:13:35;;;;;;;0.17;0.15;;;15.60;1.00;;;;;;5103534;28;20122;-76
2023/05/30 09:16:01;;;;;;;0.00;0.00;;;15.40;1.00;;;;;;5103654;28;20071;-76
2023/05/30 09:18:32;;;;;;;1.00;0.75;;;15.30;1.00;;;;;;5103178;28;20520;-76
2023/05/30 09:20:58;;;;;;;0.00;0.00;;;15.20;1.00;;;;;;5103454;28;20123;-76
2023/05/30 09:23:24;;;;;;;0.00;0.00;;;15.10;1.00;;;;;;5103189;28;20126;-76
2023/05/30 09:25:51;;;;;;;0.00;0.00;;;14.90;14.20;;;;;;5103130;28;20436;-76
2023/05/30 09:28:24;;;;;;;0.00;0.00;;;14.80;94.30;;;;;;5103454;28;20097;-76
2023/05/30 09:30:58;;;;;;;0.00;0.00;;;15.00;99.70;;;;;;5103207;28;20088;-76
2023/05/30 09:33:25;;;;;;;0.00;0.00;;;15.30;74.40;;;;;;5103204;28;20105;-76
2023/05/30 09:35:53;;;;;;;0.00;0.00;;;15.20;40.20;;;;;;5103092;28;20039;-76
2023/05/30 09:38:24;;;;;;;0.00;0.00;;;15.60;1.00;;;;;;5102566;28;20055;-76
2023/05/30 09:40:55;;;;;;;0.00;0.00;;;16.00;1.00;;;;;;5103290;28;20114;-76
2023/05/30 09:43:31;;;;;;;0.10;0.10;;;16.10;1.00;;;;;;5103283;28;20101;-75
2023/05/30 09:46:00;;;;;;;0.00;0.00;;;16.50;99.90;;;;;;5084331;28;20100;-76
2023/05/30 09:48:26;;;;;;;0.00;0.00;;;16.70;99.90;;;;;;5102736;28;20118;-76
2023/05/30 09:50:53;;;;;;;0.10;0.05;;;16.80;99.90;;;;;;5102821;28;20118;-76
2023/05/30 09:53:18;;;;;;;0.30;0.13;;;16.40;99.90;;;;;;5102716;28;20051;-76
2023/05/30 09:55:44;;;;;;;0.00;0.00;;;16.30;99.90;;;;;;5102606;28;20070;-76
2023/05/30 09:58:18;;;;;;;0.45;0.28;;;16.10;99.90;;;;;;5102638;28;20702;-76
2023/05/30 10:00:55;;;;;;;0.00;0.00;;;15.80;99.90;;;;;;5102687;28;20516;-76
2023/05/30 10:03:39;;;;;;;0.00;0.00;;;15.70;99.90;;;;;;5102203;28;20636;-76
2023/05/30 10:06:15;;;;;;;10.43;2.28;;;15.70;99.90;;;;;;5102573;28;20043;-76
2023/05/30 10:08:48;;;;;;;0.00;0.00;;;15.60;99.90;;;;;;5102611;28;20078;-76
2023/05/30 10:11:14;;;;;;;0.00;0.00;;;15.70;99.90;;;;;;5102141;28;20188;-76
2023/05/30 10:13:40;;;;;;;0.00;0.00;;;15.80;99.90;;;;;;5084298;28;20126;-76
2023/05/30 10:16:13;;;;;;;0.00;0.00;;;15.80;99.90;;;;;;5102407;28;20055;-76
2023/05/30 10:18:47;;;;;;;0.00;0.00;;;16.00;99.90;;;;;;5102851;28;20398;-76
2023/05/30 10:21:14;;;;;;;0.30;0.17;;;15.80;99.90;;;;;;5102344;28;20046;-76
2023/05/30 10:23:41;;;;;;;3.92;0.10;;;15.90;99.90;;;;;;5102278;28;20975;-76
2023/05/30 10:26:10;;;;;;;1.17;0.20;;;15.70;99.90;;;;;;5084229;28;20197;-76
2023/05/30 10:28:38;;;;;;;0.00;0.00;;;15.70;99.90;;;;;;5102419;28;20052;-76
2023/05/30 10:31:05;;;;;;;0.00;0.00;;;15.50;99.90;;;;;;5102232;28;20048;-76
2023/05/30 10:33:35;;;;;;;0.10;0.10;;;15.20;99.90;;;;;;5102647;28;20523;-76
2023/05/30 10:36:01;;;;;;;0.00;0.00;;;15.10;99.90;;;;;;5102398;28;20047;-76
2023/05/30 10:38:29;;;;;;;0.75;0.50;;;15.20;99.90;;;;;;5102443;28;20097;-76
2023/05/30 10:41:00;;;;;;;0.00;0.00;;;15.00;1.00;;;;;;5102563;28;20051;-76
2023/05/30 10:43:49;;;;;;;0.00;0.00;;;15.00;1.00;;;;;;5102177;28;20138;-76
2023/05/30 10:46:46;;;;;;;0.00;0.00;;;15.10;1.00;;;;;;5102004;28;20046;-76
2023/05/30 10:49:18;;;;;;;0.00;0.00;;;15.10;1.00;;;;;;5104800;28;20052;-76
2023/05/30 10:52:04;;;;;;;0.00;0.00;;;15.30;99.90;;;;;;5106107;28;20489;-76
2023/05/30 10:54:32;;;;;;;0.00;0.00;;;15.40;99.90;;;;;;5106123;28;20074;-76
2023/05/30 10:57:00;;;;;;;0.35;0.08;;;15.60;99.90;;;;;;5106701;28;20047;-76
2023/05/30 10:59:26;;;;;;;0.00;0.00;;;15.90;99.90;;;;;;5105595;28;20051;-76
2023/05/30 11:02:07;;;;;;;0.00;0.00;;;16.00;99.90;;;;;;5105913;28;20051;-76
2023/05/30 11:04:37;;;;;;;0.00;0.00;;;16.20;99.90;;;;;;5106351;28;20047;-76
2023/05/30 11:07:05;;;;;;;0.10;0.10;;;16.50;99.90;;;;;;5106322;28;20727;-76
2023/05/30 11:09:31;;;;;;;0.00;0.00;;;17.00;99.90;;;;;;5105744;28;20088;-76
2023/05/30 11:12:00;;;;;;;0.22;0.13;;;17.20;99.90;;;;;;5105464;28;20502;-76
2023/05/30 11:14:28;;;;;;;0.10;0.10;;;17.50;99.90;;;;;;5105855;28;20047;-76
2023/05/30 11:16:54;;;;;;;0.00;0.00;;;17.50;99.90;;;;;;5105766;28;20112;-76
2023/05/30 11:19:22;;;;;;;0.10;0.10;;;17.20;99.90;;;;;;5105617;28;20425;-76
2023/05/30 11:22:00;;;;;;;0.00;0.00;;;17.00;99.90;;;;;;5105606;28;20425;-76
2023/05/30 11:24:28;;;;;;;0.00;0.00;;;16.70;99.90;;;;;;5086877;28;20060;-76
2023/05/30 11:26:56;;;;;;;0.05;0.05;;;16.20;99.90;;;;;;5105486;28;20165;-76
2023/05/30 11:29:36;;;;;;;0.00;0.00;;;16.20;99.90;;;;;;5105936;28;20048;-76
2023/05/30 11:32:05;;;;;;;0.73;0.65;;;16.00;99.90;;;;;;5105412;28;20042;-76
2023/05/30 11:34:30;;;;;;;0.35;0.22;;;15.90;99.90;;;;;;5105195;28;20047;-76
2023/05/30 11:36:56;;;;;;;0.10;0.10;;;16.20;99.90;;;;;;5104997;28;20043;-76
2023/05/30 11:39:22;;;;;;;0.00;0.00;;;16.50;99.90;;;;;;5105002;28;20116;-76
2023/05/30 11:41:48;;;;;;;0.00;0.00;;;16.70;99.90;;;;;;5105614;28;20047;-76
2023/05/30 11:44:14;;;;;;;0.00;0.00;;;17.00;99.90;;;;;;5104794;28;20036;-76
2023/05/30 11:46:41;;;;;;;0.00;0.00;;;17.40;99.90;;;;;;5105353;28;20118;-76
2023/05/30 11:49:07;;;;;;;0.00;0.00;;;17.40;99.90;;;;;;5105146;28;20828;-76
2023/05/30 11:51:32;;;;;;;0.00;0.00;;;17.70;99.90;;;;;;5105020;28;20096;-76
2023/05/30 11:53:59;;;;;;;0.00;0.00;;;18.20;99.90;;;;;;5105239;28;20043;-76
2023/05/30 11:56:31;;;;;;;1.10;0.52;;;18.20;99.90;;;;;;5105272;28;20052;-76
2023/05/30 11:58:57;;;;;;;0.00;0.00;;;18.30;99.90;;;;;;5104981;28;20051;-76
2023/05/30 12:01:23;;;;;;;0.00;0.00;;;17.70;99.90;;;;;;5104566;28;20450;-76
2023/05/30 12:03:49;;;;;;;0.00;0.00;;;17.60;99.90;;;;;;5105050;28;20619;-76
2023/05/30 12:06:15;;;;;;;0.00;0.00;;;17.40;99.90;;;;;;5104796;28;20138;-76
2023/05/30 12:08:42;;;;;;;0.25;0.10;;;17.30;99.90;;;;;;5104836;28;20039;-76
2023/05/30 12:11:11;;;;;;;0.05;0.05;;;17.60;99.90;;;;;;5104700;28;20051;-76
2023/05/30 12:13:37;;;;;;;0.10;0.10;;;18.20;99.90;;;;;;5104529;28;20494;-76
2023/05/30 12:16:03;;;;;;;0.00;0.00;;;18.40;99.90;;;;;;5104591;28;20043;-76
2023/05/30 12:18:30;;;;;;;0.08;0.00;;;18.30;99.90;;;;;;5104323;28;20350;-76
2023/05/30 12:21:00;;;;;;;0.00;0.00;;;18.20;99.90;;;;;;5104595;28;20097;-76
2023/05/30 12:23:26;;;;;;;0.30;0.28;;;17.70;99.90;;;;;;5104143;28;20484;-76
2023/05/30 12:25:53;;;;;;;0.00;0.00;;;17.20;99.90;;;;;;5104152;28;20111;-76
2023/05/30 12:28:19;;;;;;;0.00;0.00;;;17.00;99.90;;;;;;5104656;28;20054;-76
2023/05/30 12:30:45;;;;;;;0.00;0.00;;;16.60;99.90;;;;;;5104028;28;20047;-75
2023/05/30 12:33:21;;;;;;;0.17;0.15;;;16.50;99.90;;;;;;5103837;28;20104;-76
2023/05/30 12:35:52;;;;;;;0.00;0.00;;;16.40;99.90;;;;;;5086107;28;20044;-76
2023/05/30 12:38:18;;;;;;;0.65;0.15;;;16.10;99.90;;;;;;5104487;28;20047;-76
2023/05/30 12:40:48;;;;;;;0.10;0.10;;;16.30;99.90;;;;;;5104245;28;20044;-76
2023/05/30 12:43:25;;;;;;;0.40;0.32;;;16.60;99.90;;;;;;5104349;28;20062;-76
2023/05/30 12:45:51;;;;;;;0.00;0.00;;;17.00;99.90;;;;;;5104134;28;20048;-76
2023/05/30 12:48:17;;;;;;;0.00;0.00;;;17.40;99.90;;;;;;5104171;28;20052;-76
2023/05/30 12:50:42;;;;;;;0.00;0.00;;;17.50;99.90;;;;;;5103935;28;20055;-76
2023/05/30 12:53:08;;;;;;;0.00;0.00;;;18.00;99.90;;;;;;5103970;28;20064;-76